createdAt,value
2022-09-09T00:00:22.978Z,24.10
2022-09-09T00:02:59.566Z,24.10
2022-09-09T00:05:31.791Z,24.10
2022-09-09T00:08:02.033Z,24.10
2022-09-09T00:10:34.881Z,24.10
2022-09-09T00:13:08.361Z,24.10
2022-09-09T00:15:39.346Z,24.10
2022-09-09T00:18:15.938Z,24.10
2022-09-09T00:20:47.033Z,24.10
2022-09-09T00:23:19.676Z,24.10
2022-09-09T00:25:52.452Z,24.10
2022-09-09T00:28:22.082Z,24.10
2022-09-09T00:30:50.361Z,24.10
2022-09-09T00:33:22.157Z,24.10
2022-09-09T00:35:51.818Z,24.10
2022-09-09T00:38:24.406Z,24.00
2022-09-09T00:40:53.886Z,24.10
2022-09-09T00:43:32.068Z,24.10
2022-09-09T00:46:12.710Z,24.00
2022-09-09T00:48:46.731Z,24.10
2022-09-09T00:51:17.540Z,24.10
2022-09-09T00:54:08.059Z,24.10
2022-09-09T00:56:43.109Z,24.00
2022-09-09T00:59:17.617Z,24.00
2022-09-09T01:01:45.890Z,24.00
2022-09-09T01:04:17.652Z,24.00
2022-09-09T01:06:45.998Z,24.00
2022-09-09T01:09:18.098Z,24.00
2022-09-09T01:11:52.270Z,24.00
2022-09-09T01:14:29.296Z,24.00
2022-09-09T01:16:58.300Z,24.00
2022-09-09T01:19:34.864Z,24.00
2022-09-09T01:22:05.656Z,24.00
2022-09-09T01:24:38.163Z,24.00
2022-09-09T01:27:07.767Z,24.00
2022-09-09T01:29:36.040Z,24.00
2022-09-09T01:32:05.337Z,24.00
2022-09-09T01:34:35.544Z,24.00
2022-09-09T01:37:05.593Z,24.00
2022-09-09T01:39:33.971Z,24.00
2022-09-09T01:42:02.274Z,24.00
2022-09-09T01:44:31.896Z,24.00
2022-09-09T01:47:00.200Z,24.00
2022-09-09T01:49:28.502Z,24.00
2022-09-09T01:51:57.466Z,24.00
2022-09-09T01:54:26.928Z,24.00
2022-09-09T01:56:59.378Z,24.00
2022-09-09T01:59:46.480Z,24.00
2022-09-09T02:02:17.307Z,24.00
2022-09-09T02:04:46.910Z,24.00
2022-09-09T02:07:25.302Z,24.00
2022-09-09T02:09:57.119Z,24.00
2022-09-09T02:12:25.579Z,24.00
2022-09-09T02:14:58.402Z,24.00
2022-09-09T02:17:28.515Z,24.00
2022-09-09T02:19:59.160Z,24.00
2022-09-09T02:22:27.458Z,24.00
2022-09-09T02:24:56.498Z,24.00
2022-09-09T02:27:24.721Z,24.00
2022-09-09T02:29:53.256Z,24.00
2022-09-09T02:32:24.642Z,24.00
2022-09-09T02:34:55.021Z,24.00
2022-09-09T02:37:25.941Z,23.90
2022-09-09T02:39:54.249Z,23.90
2022-09-09T02:42:23.266Z,24.00
2022-09-09T02:44:51.499Z,24.00
2022-09-09T02:47:29.159Z,24.00
2022-09-09T02:50:03.423Z,23.90
2022-09-09T02:52:35.007Z,24.00
2022-09-09T02:55:06.754Z,24.00
2022-09-09T02:57:34.988Z,23.90
2022-09-09T03:00:04.004Z,23.90
2022-09-09T03:02:33.711Z,23.90
2022-09-09T03:05:02.051Z,23.90
2022-09-09T03:07:30.286Z,23.90
2022-09-09T03:09:59.190Z,23.90
2022-09-09T03:12:27.422Z,23.90
2022-09-09T03:14:55.699Z,24.00
2022-09-09T03:17:23.919Z,23.90
2022-09-09T03:19:55.400Z,23.90
2022-09-09T03:22:25.959Z,23.90
2022-09-09T03:24:54.231Z,24.00
2022-09-09T03:27:22.457Z,23.90
2022-09-09T03:29:51.931Z,23.90
2022-09-09T03:32:23.301Z,23.90
2022-09-09T03:34:53.060Z,23.90
2022-09-09T03:37:21.286Z,23.90
2022-09-09T03:39:49.562Z,23.90
2022-09-09T03:42:19.576Z,23.90
2022-09-09T03:44:53.575Z,23.90
2022-09-09T03:47:22.631Z,23.90
2022-09-09T03:49:50.903Z,23.90
2022-09-09T03:52:23.846Z,23.90
2022-09-09T03:54:52.319Z,23.90
2022-09-09T03:57:20.576Z,23.90
2022-09-09T03:59:48.802Z,23.90
2022-09-09T04:02:17.085Z,23.90
2022-09-09T04:04:45.374Z,23.90
2022-09-09T04:07:13.752Z,23.90
2022-09-09T04:09:43.389Z,23.90
2022-09-09T04:12:14.124Z,23.90
2022-09-09T04:14:42.422Z,23.90
2022-09-09T04:17:10.991Z,23.80
2022-09-09T04:19:39.435Z,23.90
2022-09-09T04:22:07.662Z,23.90
2022-09-09T04:24:36.222Z,23.90
2022-09-09T04:27:05.906Z,23.90
2022-09-09T04:29:34.291Z,23.80
2022-09-09T04:32:02.921Z,23.80
2022-09-09T04:34:32.219Z,23.80
2022-09-09T04:37:01.350Z,23.90
2022-09-09T04:39:29.802Z,23.90
2022-09-09T04:41:58.527Z,23.90
2022-09-09T04:44:28.121Z,23.80
2022-09-09T04:46:56.366Z,23.90
2022-09-09T04:49:31.939Z,23.80
2022-09-09T04:52:00.185Z,23.90
2022-09-09T04:54:28.726Z,23.80
2022-09-09T04:56:57.177Z,23.80
2022-09-09T04:59:28.950Z,23.80
2022-09-09T05:01:57.226Z,23.90
2022-09-09T05:04:25.465Z,23.80
2022-09-09T05:06:53.697Z,23.90
2022-09-09T05:09:21.938Z,23.80
2022-09-09T05:11:50.162Z,23.80
2022-09-09T05:14:18.406Z,23.80
2022-09-09T05:16:48.151Z,23.80
2022-09-09T05:19:16.372Z,23.90
2022-09-09T05:21:44.654Z,23.80
2022-09-09T05:24:12.959Z,23.80
2022-09-09T05:26:41.189Z,23.80
2022-09-09T05:29:09.416Z,23.80
2022-09-09T05:31:37.780Z,23.80
2022-09-09T05:34:07.444Z,23.80
2022-09-09T05:36:35.654Z,23.80
2022-09-09T05:39:03.920Z,23.80
2022-09-09T05:41:32.634Z,23.90
2022-09-09T05:44:02.061Z,23.90
2022-09-09T05:46:31.087Z,23.90
2022-09-09T05:48:59.408Z,23.90
2022-09-09T05:51:31.382Z,23.90
2022-09-09T05:54:00.362Z,23.90
2022-09-09T05:56:29.512Z,23.90
2022-09-09T05:58:58.024Z,23.90
2022-09-09T06:01:27.225Z,23.90
2022-09-09T06:03:55.524Z,23.90
2022-09-09T06:06:24.961Z,23.90
2022-09-09T06:08:55.241Z,23.90
2022-09-09T06:11:24.518Z,23.90
2022-09-09T06:13:54.748Z,23.90
2022-09-09T06:16:24.644Z,23.90
2022-09-09T06:18:53.971Z,23.90
2022-09-09T06:21:22.971Z,23.90
2022-09-09T06:23:52.269Z,23.90
2022-09-09T06:26:23.390Z,23.90
2022-09-09T06:28:53.375Z,23.90
2022-09-09T06:31:25.824Z,23.90
2022-09-09T06:33:56.454Z,23.90
2022-09-09T06:36:25.832Z,23.90
2022-09-09T06:38:54.114Z,23.90
2022-09-09T06:41:24.947Z,23.90
2022-09-09T06:43:53.198Z,23.90
2022-09-09T06:46:22.667Z,23.90
2022-09-09T06:48:51.261Z,23.90
2022-09-09T06:51:22.064Z,23.90
2022-09-09T06:53:54.458Z,23.90
2022-09-09T06:56:24.901Z,23.90
2022-09-09T06:58:54.001Z,23.90
2022-09-09T07:01:22.982Z,23.90
2022-09-09T07:03:52.279Z,23.90
2022-09-09T07:06:21.404Z,23.90
2022-09-09T07:08:56.640Z,23.90
2022-09-09T07:11:27.784Z,23.90
2022-09-09T07:13:56.069Z,23.90
2022-09-09T07:16:25.660Z,23.90
2022-09-09T07:18:58.490Z,23.90
2022-09-09T07:21:27.216Z,23.90
2022-09-09T07:23:55.631Z,23.80
2022-09-09T07:26:26.580Z,23.90
2022-09-09T07:28:54.962Z,23.90
2022-09-09T07:31:25.745Z,23.80
2022-09-09T07:33:54.189Z,23.90
2022-09-09T07:36:23.645Z,23.80
2022-09-09T07:38:53.332Z,23.80
2022-09-09T07:41:22.860Z,23.90
2022-09-09T07:43:52.706Z,23.80
2022-09-09T07:46:21.332Z,23.90
2022-09-09T07:48:52.181Z,23.80
2022-09-09T07:51:22.415Z,23.90
2022-09-09T07:53:53.202Z,23.90
2022-09-09T07:56:24.115Z,23.90
2022-09-09T07:58:54.404Z,23.90
2022-09-09T08:01:24.487Z,23.90
2022-09-09T08:03:56.679Z,23.90
2022-09-09T08:06:25.926Z,23.90
2022-09-09T08:08:55.850Z,23.90
2022-09-09T08:11:25.423Z,23.90
2022-09-09T08:13:58.997Z,23.90
2022-09-09T08:16:30.919Z,23.90
2022-09-09T08:18:59.918Z,23.90
2022-09-09T08:21:29.029Z,23.90
2022-09-09T08:23:58.407Z,23.90
2022-09-09T08:26:28.756Z,23.90
2022-09-09T08:28:59.338Z,23.90
2022-09-09T08:31:28.981Z,23.90
2022-09-09T08:33:57.481Z,23.90
2022-09-09T08:36:27.528Z,23.90
2022-09-09T08:38:56.780Z,23.90
2022-09-09T08:41:55.802Z,23.90
2022-09-09T08:44:31.919Z,23.90
2022-09-09T08:47:02.812Z,23.90
2022-09-09T08:49:57.730Z,24.00
2022-09-09T08:52:28.093Z,23.90
2022-09-09T08:54:56.483Z,23.90
2022-09-09T08:57:27.927Z,23.90
2022-09-09T08:59:58.577Z,24.00
2022-09-09T09:02:28.619Z,23.90
2022-09-09T09:05:02.031Z,23.90
2022-09-09T09:07:52.400Z,23.90
2022-09-09T09:10:41.029Z,23.90
2022-09-09T09:13:14.925Z,23.90
2022-09-09T09:15:45.744Z,23.90
2022-09-09T09:18:14.952Z,24.00
2022-09-09T09:20:46.934Z,24.00
2022-09-09T09:23:17.497Z,24.00
2022-09-09T09:25:45.795Z,24.00
2022-09-09T09:28:18.318Z,24.00
2022-09-09T09:30:50.220Z,24.00
2022-09-09T09:33:20.262Z,24.10
2022-09-09T09:35:50.216Z,24.10
2022-09-09T09:41:07.889Z,24.20
2022-09-09T09:43:37.041Z,24.20
2022-09-09T09:46:17.207Z,24.20
2022-09-09T09:48:47.237Z,24.20
2022-09-09T09:51:16.954Z,24.20
2022-09-09T09:53:45.336Z,24.20
2022-09-09T09:56:14.441Z,24.10
2022-09-09T09:58:51.525Z,24.20
2022-09-09T10:01:25.809Z,24.10
2022-09-09T10:03:54.762Z,24.10
2022-09-09T10:06:32.215Z,24.10
2022-09-09T10:09:00.502Z,24.10
2022-09-09T10:11:41.371Z,24.10
2022-09-09T10:14:13.709Z,24.00
2022-09-09T10:16:50.418Z,24.10
2022-09-09T10:19:20.114Z,24.10
2022-09-09T10:22:10.344Z,24.00
2022-09-09T10:25:21.784Z,24.00
2022-09-09T10:28:00.615Z,24.00
2022-09-09T10:30:33.167Z,24.10
2022-09-09T10:33:06.562Z,24.10
2022-09-09T10:35:37.682Z,24.10
2022-09-09T10:38:16.865Z,24.10
2022-09-09T10:40:52.193Z,24.20
2022-09-09T10:43:27.936Z,24.30
2022-09-09T10:46:00.249Z,24.30
2022-09-09T10:48:33.614Z,24.30
2022-09-09T10:51:10.152Z,24.30
2022-09-09T10:53:41.958Z,24.40
2022-09-09T10:56:11.669Z,24.40
2022-09-09T10:58:43.616Z,24.50
2022-09-09T11:01:16.990Z,24.50
2022-09-09T11:03:48.183Z,24.50
2022-09-09T11:06:18.049Z,24.50
2022-09-09T11:08:46.330Z,24.50
2022-09-09T11:11:18.718Z,24.50
2022-09-09T11:13:49.557Z,24.40
2022-09-09T11:16:24.505Z,24.40
2022-09-09T11:18:55.463Z,24.40
2022-09-09T11:21:27.181Z,24.30
2022-09-09T11:23:56.390Z,24.30
2022-09-09T11:26:30.619Z,24.20
2022-09-09T11:29:06.461Z,24.20
2022-09-09T11:31:44.160Z,24.20
2022-09-09T11:34:21.230Z,24.20
2022-09-09T11:37:10.898Z,24.10
2022-09-09T11:39:58.930Z,24.20
2022-09-09T11:42:27.264Z,24.20
2022-09-09T11:44:55.710Z,24.20
2022-09-09T11:47:30.398Z,24.30
2022-09-09T11:50:11.288Z,24.40
2022-09-09T11:52:40.321Z,24.50
2022-09-09T11:55:13.043Z,24.50
2022-09-09T11:57:43.092Z,24.60
2022-09-09T12:00:33.721Z,24.60
2022-09-09T12:03:01.978Z,24.60
2022-09-09T12:05:39.582Z,24.60
2022-09-09T12:08:07.805Z,24.60
2022-09-09T12:10:36.971Z,24.60
2022-09-09T12:13:17.989Z,24.60
2022-09-09T12:15:50.578Z,24.60
2022-09-09T12:18:24.514Z,24.60
2022-09-09T12:20:59.180Z,24.60
2022-09-09T12:23:34.823Z,24.60
2022-09-09T12:26:09.777Z,24.60
2022-09-09T12:28:52.733Z,24.60
2022-09-09T12:31:25.336Z,24.60
2022-09-09T12:33:53.687Z,24.60
2022-09-09T12:36:24.177Z,24.60
2022-09-09T12:38:53.251Z,24.60
2022-09-09T12:41:22.473Z,24.60
2022-09-09T12:43:51.677Z,24.60
2022-09-09T12:46:28.942Z,24.60
2022-09-09T12:48:57.559Z,24.60
2022-09-09T12:51:28.715Z,24.60
2022-09-09T12:53:57.047Z,24.80
2022-09-09T12:56:27.606Z,24.90
2022-09-09T12:58:56.751Z,24.90
2022-09-09T13:01:25.921Z,24.90
2022-09-09T13:03:54.423Z,24.90
2022-09-09T13:06:28.550Z,24.90
2022-09-09T13:09:00.839Z,24.90
2022-09-09T13:11:31.472Z,24.80
2022-09-09T13:13:59.919Z,24.80
2022-09-09T13:16:32.614Z,24.70
2022-09-09T13:19:01.580Z,24.70
2022-09-09T13:21:36.467Z,24.70
2022-09-09T13:24:08.388Z,24.70
2022-09-09T13:26:36.795Z,24.60
2022-09-09T13:29:19.533Z,24.60
2022-09-09T13:31:47.847Z,24.50
2022-09-09T13:34:16.194Z,24.50
2022-09-09T13:36:48.662Z,24.40
2022-09-09T13:39:19.747Z,24.40
2022-09-09T13:41:49.402Z,24.40
2022-09-09T13:44:21.541Z,24.40
2022-09-09T13:46:49.799Z,24.40
2022-09-09T13:49:22.832Z,24.40
2022-09-09T13:51:53.217Z,24.40
2022-09-09T13:54:23.786Z,24.40
2022-09-09T13:56:52.195Z,24.40
2022-09-09T13:59:22.284Z,24.40
2022-09-09T14:01:53.536Z,24.50
2022-09-09T14:04:22.617Z,24.60
2022-09-09T14:06:50.918Z,24.60
2022-09-09T14:09:19.626Z,24.60
2022-09-09T14:11:49.218Z,24.60
2022-09-09T14:14:17.462Z,24.70
2022-09-09T14:16:45.947Z,24.70
2022-09-09T14:19:14.197Z,24.80
2022-09-09T14:21:42.501Z,24.90
2022-09-09T14:24:10.743Z,24.90
2022-09-09T14:26:39.108Z,25.30
2022-09-09T14:29:08.721Z,25.80
2022-09-09T14:31:36.957Z,26.30
2022-09-09T14:34:05.183Z,26.60
2022-09-09T14:36:33.517Z,26.70
2022-09-09T14:39:01.732Z,26.50
2022-09-09T14:41:30.470Z,26.20
2022-09-09T14:44:01.249Z,26.10
2022-09-09T14:46:30.816Z,25.80
2022-09-09T14:49:00.248Z,25.60
2022-09-09T14:51:29.281Z,25.50
2022-09-09T14:53:58.708Z,25.70
2022-09-09T14:56:27.758Z,25.60
2022-09-09T14:58:56.667Z,25.60
2022-09-09T15:01:25.399Z,25.60
2022-09-09T15:03:55.994Z,25.50
2022-09-09T15:06:25.010Z,25.40
2022-09-09T15:08:54.272Z,25.30
2022-09-09T15:11:22.998Z,25.20
2022-09-09T15:13:58.327Z,25.20
2022-09-09T15:16:27.465Z,25.10
2022-09-09T15:18:58.298Z,25.00
2022-09-09T15:21:27.542Z,24.90
2022-09-09T15:23:55.853Z,24.90
2022-09-09T15:26:24.101Z,24.90
2022-09-09T15:28:52.370Z,24.80
2022-09-09T15:31:21.871Z,24.80
2022-09-09T15:33:50.460Z,24.70
2022-09-09T15:36:21.734Z,24.70
2022-09-09T15:38:50.342Z,24.70
2022-09-09T15:41:18.882Z,24.70
2022-09-09T15:43:47.642Z,24.60
2022-09-09T15:46:28.335Z,24.60
2022-09-09T15:48:57.355Z,24.60
2022-09-09T15:51:43.967Z,24.60
2022-09-09T15:54:13.897Z,24.60
2022-09-09T15:56:42.434Z,24.70
2022-09-09T15:59:10.936Z,24.60
2022-09-09T16:01:40.411Z,24.70
2022-09-09T16:04:08.765Z,24.60
2022-09-09T16:06:38.398Z,24.60
2022-09-09T16:09:07.342Z,24.60
2022-09-09T16:11:37.340Z,24.60
2022-09-09T16:14:08.549Z,24.60
2022-09-09T16:16:36.986Z,24.60
2022-09-09T16:19:06.722Z,24.50
2022-09-09T16:21:36.135Z,24.50
2022-09-09T16:24:06.215Z,24.50
2022-09-09T16:26:35.365Z,24.50
2022-09-09T16:29:03.737Z,24.50
2022-09-09T16:31:32.917Z,24.70
2022-09-09T16:34:01.297Z,24.90
2022-09-09T16:36:30.925Z,25.00
2022-09-09T16:39:00.263Z,25.00
2022-09-09T16:41:30.292Z,24.90
2022-09-09T16:44:00.154Z,25.10
2022-09-09T16:46:29.383Z,25.20
2022-09-09T16:48:59.256Z,25.10
2022-09-09T16:51:28.418Z,25.00
2022-09-09T16:53:56.715Z,24.90
2022-09-09T16:56:27.067Z,24.80
2022-09-09T16:58:57.595Z,24.80
2022-09-09T17:01:25.938Z,24.70
2022-09-09T17:03:58.801Z,24.60
2022-09-09T17:06:29.753Z,24.60
2022-09-09T17:08:58.280Z,24.60
2022-09-09T17:11:26.801Z,24.50
2022-09-09T17:13:56.484Z,24.50
2022-09-09T17:16:25.408Z,24.50
2022-09-09T17:18:53.938Z,24.50
2022-09-09T17:21:24.317Z,24.50
2022-09-09T17:23:52.647Z,24.40
2022-09-09T17:26:22.135Z,24.40
2022-09-09T17:28:50.392Z,24.40
2022-09-09T17:31:20.461Z,24.40
2022-09-09T17:33:51.209Z,24.40
2022-09-09T17:36:20.466Z,24.40
2022-09-09T17:38:49.199Z,24.30
2022-09-09T17:41:18.990Z,24.30
2022-09-09T17:43:47.319Z,24.30
2022-09-09T17:46:16.573Z,24.20
2022-09-09T17:48:46.420Z,24.20
2022-09-09T17:51:15.549Z,24.20
2022-09-09T17:53:46.173Z,24.20
2022-09-09T17:56:15.335Z,24.10
2022-09-09T17:58:43.630Z,24.10
2022-09-09T18:01:13.446Z,24.10
2022-09-09T18:03:43.421Z,24.10
2022-09-09T18:06:16.109Z,24.10
2022-09-09T18:08:44.702Z,24.10
2022-09-09T18:11:12.919Z,24.10
2022-09-09T18:13:41.202Z,24.00
2022-09-09T18:16:09.807Z,24.00
2022-09-09T18:18:38.267Z,24.00
2022-09-09T18:21:07.531Z,24.00
2022-09-09T18:23:37.476Z,24.00
2022-09-09T18:26:10.467Z,24.00
2022-09-09T18:28:39.506Z,24.00
2022-09-09T18:31:08.766Z,24.00
2022-09-09T18:33:38.158Z,24.00
2022-09-09T18:36:08.338Z,24.00
2022-09-09T18:38:38.548Z,24.00
2022-09-09T18:41:16.516Z,24.00
2022-09-09T18:43:44.903Z,24.00
2022-09-09T18:46:13.307Z,24.00
2022-09-09T18:48:41.568Z,24.00
2022-09-09T18:51:10.850Z,24.00
2022-09-09T18:53:41.277Z,23.90
2022-09-09T18:56:10.494Z,24.00
2022-09-09T18:58:43.992Z,23.90
2022-09-09T19:01:13.726Z,23.90
2022-09-09T19:03:42.118Z,23.90
2022-09-09T19:06:12.398Z,23.90
2022-09-09T19:08:42.590Z,23.90
2022-09-09T19:11:11.757Z,23.90
2022-09-09T19:13:40.382Z,23.90
2022-09-09T19:16:09.405Z,23.90
2022-09-09T19:18:38.631Z,23.90
2022-09-09T19:21:11.820Z,23.90
2022-09-09T19:23:41.637Z,23.90
2022-09-09T19:26:11.117Z,23.90
2022-09-09T19:28:39.743Z,23.90
2022-09-09T19:31:08.904Z,23.90
2022-09-09T19:33:37.573Z,23.90
2022-09-09T19:36:07.920Z,23.90
2022-09-09T19:38:38.947Z,23.80
2022-09-09T19:41:10.108Z,23.90
2022-09-09T19:43:38.404Z,23.80
2022-09-09T19:46:07.569Z,23.80
2022-09-09T19:48:37.486Z,23.80
2022-09-09T19:51:06.239Z,23.80
2022-09-09T19:53:37.468Z,23.80
2022-09-09T19:56:05.960Z,23.80
2022-09-09T19:58:36.066Z,23.80
2022-09-09T20:01:10.599Z,23.80
2022-09-09T20:03:39.241Z,23.80
2022-09-09T20:06:08.322Z,23.80
2022-09-09T20:08:37.302Z,23.80
2022-09-09T20:11:05.970Z,23.80
2022-09-09T20:13:37.454Z,23.80
2022-09-09T20:16:07.025Z,23.80
2022-09-09T20:18:37.062Z,23.80
2022-09-09T20:21:06.706Z,23.80
2022-09-09T20:23:35.095Z,23.80
2022-09-09T20:26:05.124Z,23.80
2022-09-09T20:28:35.561Z,23.80
2022-09-09T20:31:08.164Z,23.80
2022-09-09T20:33:36.789Z,23.80
2022-09-09T20:36:11.432Z,23.80
2022-09-09T20:38:42.731Z,23.80
2022-09-09T20:41:11.565Z,23.80
2022-09-09T20:43:41.594Z,23.80
2022-09-09T20:46:09.842Z,23.80
2022-09-09T20:48:38.278Z,23.80
2022-09-09T20:51:06.742Z,23.80
2022-09-09T20:53:35.061Z,23.80
2022-09-09T20:56:03.742Z,23.80
2022-09-09T20:58:33.564Z,23.70
2022-09-09T21:01:03.569Z,23.70
2022-09-09T21:03:32.643Z,23.80
2022-09-09T21:06:00.869Z,23.80
2022-09-09T21:08:29.901Z,23.80
2022-09-09T21:10:58.340Z,23.80
2022-09-09T21:13:26.613Z,23.70
2022-09-09T21:15:54.887Z,23.70
2022-09-09T21:18:24.502Z,23.70
2022-09-09T21:20:53.014Z,23.70
2022-09-09T21:23:21.872Z,23.70
2022-09-09T21:25:50.119Z,23.80
2022-09-09T21:28:18.457Z,23.70
2022-09-09T21:30:48.730Z,23.70
2022-09-09T21:33:17.271Z,23.70
2022-09-09T21:35:46.888Z,23.80
2022-09-09T21:38:17.274Z,23.70
2022-09-09T21:40:50.075Z,23.80
2022-09-09T21:43:18.819Z,23.70
2022-09-09T21:45:47.403Z,23.70
2022-09-09T21:48:16.539Z,23.70
2022-09-09T21:50:48.778Z,23.70
2022-09-09T21:53:18.931Z,23.70
2022-09-09T21:55:48.541Z,23.70
2022-09-09T21:58:18.307Z,23.70
2022-09-09T22:00:47.283Z,23.70
2022-09-09T22:03:15.742Z,23.70
2022-09-09T22:05:47.962Z,23.70
2022-09-09T22:08:19.991Z,23.70
2022-09-09T22:10:51.329Z,23.70
2022-09-09T22:13:20.001Z,23.60
2022-09-09T22:15:48.325Z,23.70
2022-09-09T22:18:18.601Z,23.70
2022-09-09T22:20:48.212Z,23.70
2022-09-09T22:23:16.561Z,23.70
2022-09-09T22:25:44.838Z,23.70
2022-09-09T22:28:13.059Z,23.70
2022-09-09T22:30:41.346Z,23.70
2022-09-09T22:33:09.722Z,23.70
2022-09-09T22:35:42.336Z,23.70
2022-09-09T22:38:12.311Z,23.70
2022-09-09T22:40:41.039Z,23.70
2022-09-09T22:43:13.097Z,23.60
2022-09-09T22:45:41.947Z,23.70
2022-09-09T22:48:10.282Z,23.70
2022-09-09T22:50:42.105Z,23.70
2022-09-09T22:53:14.281Z,23.70
2022-09-09T22:55:42.564Z,23.70
2022-09-09T22:58:11.012Z,23.70
2022-09-09T23:00:46.528Z,23.60
2022-09-09T23:03:14.761Z,23.60
2022-09-09T23:05:43.067Z,23.70
2022-09-09T23:08:12.670Z,23.70
2022-09-09T23:10:42.431Z,23.60
2022-09-09T23:13:10.875Z,23.60
2022-09-09T23:15:39.164Z,23.60
2022-09-09T23:18:07.881Z,23.60
2022-09-09T23:20:36.491Z,23.60
2022-09-09T23:23:04.737Z,23.60
2022-09-09T23:25:35.496Z,23.60
2022-09-09T23:28:04.312Z,23.60
2022-09-09T23:30:32.537Z,23.60
2022-09-09T23:33:00.761Z,23.60
2022-09-09T23:35:28.982Z,23.60
2022-09-09T23:37:57.366Z,23.60
2022-09-09T23:40:26.822Z,23.60
2022-09-09T23:42:56.954Z,23.60
2022-09-09T23:45:25.218Z,23.60
2022-09-09T23:47:55.690Z,23.60
2022-09-09T23:50:24.726Z,23.60
2022-09-09T23:52:53.003Z,23.60
2022-09-09T23:55:23.524Z,23.60
2022-09-09T23:57:51.835Z,23.60
